Terminal Aerodrome Forecast
Issued by NWS Twin Cities, MN

Home | Current Version | Previous Version | Text Only | Print | Product List | Glossary Off
Versions: 1 2 3 4 5 6 7 8 9 10 11 12 13 14 15 16 17 18 19 20 21 22 23 24 25 26 27

000
FTUS43 KMPX 201125
TAFMSP
TAF
KMSP 201125Z 2012/2118 34010KT 5SM -SHSN BR SCT018 OVC028
      TEMPO 2012/2014 2SM -SNPL BR BKN018
     FM201400 33009KT P6SM OVC015
     FM202000 31009KT P6SM OVC020
     FM210000 30008KT P6SM BKN035
     FM210400 30010KT P6SM SCT040
     FM211000 27004KT P6SM FEW250=

USA.gov is the U.S. government's official web portal to all federal, state and local government web resources and services.